createdAt,value
2018-12-01T00:00:35.630Z,1.10
2018-12-01T00:05:38.738Z,1.10
2018-12-01T00:10:41.855Z,1.10
2018-12-01T00:15:44.946Z,1.10
2018-12-01T00:20:48.056Z,1.10
2018-12-01T00:25:51.206Z,1.10
2018-12-01T00:30:54.306Z,1.10
2018-12-01T00:35:57.431Z,1.10
2018-12-01T00:41:00.550Z,1.10
2018-12-01T00:46:03.660Z,1.10
2018-12-01T00:51:06.774Z,1.10
2018-12-01T00:56:09.884Z,1.20
2018-12-01T01:01:12.993Z,1.20
2018-12-01T01:06:16.162Z,1.20
2018-12-01T01:11:19.271Z,1.20
2018-12-01T01:16:22.378Z,1.20
2018-12-01T01:21:25.488Z,1.10
2018-12-01T01:26:28.608Z,1.20
2018-12-01T01:31:31.720Z,1.20
2018-12-01T01:36:34.842Z,1.20
2018-12-01T01:41:37.946Z,1.20
2018-12-01T01:46:41.050Z,1.20
2018-12-01T01:51:44.162Z,1.20
2018-12-01T01:56:47.287Z,1.20
2018-12-01T02:01:50.397Z,1.20
2018-12-01T02:06:53.511Z,1.20
2018-12-01T02:11:56.606Z,1.20
2018-12-01T02:16:59.718Z,1.20
2018-12-01T02:22:02.856Z,1.20
2018-12-01T02:27:05.983Z,1.20
2018-12-01T02:32:09.112Z,1.20
2018-12-01T02:37:12.222Z,1.20
2018-12-01T02:42:15.382Z,1.20
2018-12-01T02:47:18.504Z,1.20
2018-12-01T02:52:21.629Z,1.20
2018-12-01T02:57:24.750Z,1.20
2018-12-01T03:02:27.887Z,1.20
2018-12-01T03:07:31.007Z,1.20
2018-12-01T03:12:34.123Z,1.20
2018-12-01T03:17:37.235Z,1.20
2018-12-01T03:22:40.342Z,1.20
2018-12-01T03:27:43.451Z,1.20
2018-12-01T03:32:46.955Z,1.20
2018-12-01T03:37:50.433Z,1.20
2018-12-01T03:42:53.541Z,1.20
2018-12-01T03:47:56.698Z,1.20
2018-12-01T03:52:59.807Z,1.20
2018-12-01T03:58:03.473Z,1.20
2018-12-01T04:03:07.021Z,1.20
2018-12-01T04:08:10.150Z,1.20
2018-12-01T04:13:13.254Z,1.20
2018-12-01T04:18:16.393Z,1.20
2018-12-01T04:23:19.533Z,1.30
2018-12-01T04:28:22.659Z,1.20
2018-12-01T04:33:25.791Z,1.30
2018-12-01T04:38:28.898Z,1.30
2018-12-01T04:43:32.011Z,1.20
2018-12-01T04:48:35.122Z,1.20
2018-12-01T04:53:38.247Z,1.30
2018-12-01T04:58:41.350Z,1.30
2018-12-01T05:03:44.473Z,1.30
2018-12-01T05:08:47.594Z,1.30
2018-12-01T05:13:50.702Z,1.30
2018-12-01T05:18:53.862Z,1.30
2018-12-01T05:23:56.965Z,1.30
2018-12-01T05:29:00.080Z,1.30
2018-12-01T05:34:03.202Z,1.30
2018-12-01T05:39:08.146Z,1.30
2018-12-01T05:44:11.266Z,1.30
2018-12-01T05:49:14.386Z,1.30
2018-12-01T05:54:17.517Z,1.30
2018-12-01T05:59:20.658Z,1.30
2018-12-01T06:04:23.779Z,1.30
2018-12-01T06:09:26.897Z,1.30
2018-12-01T06:14:30.003Z,1.30
2018-12-01T06:19:33.142Z,1.30
2018-12-01T06:24:36.256Z,1.30
2018-12-01T06:29:39.370Z,1.30
2018-12-01T06:34:43.383Z,1.30
2018-12-01T06:39:46.659Z,1.30
2018-12-01T06:44:49.775Z,1.30
2018-12-01T06:49:52.883Z,1.40
2018-12-01T06:54:56.098Z,1.40
2018-12-01T06:59:59.208Z,1.40
2018-12-01T07:05:02.570Z,1.40
2018-12-01T07:10:09.186Z,1.40
2018-12-01T07:15:15.872Z,1.40
2018-12-01T07:20:18.994Z,1.40
2018-12-01T07:25:22.131Z,1.40
2018-12-01T07:30:25.380Z,1.40
2018-12-01T07:35:28.505Z,1.40
2018-12-01T07:40:31.739Z,1.40
2018-12-01T07:45:34.839Z,1.40
2018-12-01T07:50:37.968Z,1.40
2018-12-01T07:55:41.082Z,1.40
2018-12-01T08:00:44.217Z,1.40
2018-12-01T08:05:47.326Z,1.40
2018-12-01T08:10:50.759Z,1.40
2018-12-01T08:15:53.874Z,1.50
2018-12-01T08:20:56.990Z,1.40
2018-12-01T08:26:00.107Z,1.50
2018-12-01T08:31:03.275Z,1.50
2018-12-01T08:36:06.403Z,1.50
2018-12-01T08:41:09.527Z,1.50
2018-12-01T08:46:12.638Z,1.50
2018-12-01T08:51:15.759Z,1.50
2018-12-01T08:56:18.878Z,1.50
2018-12-01T09:01:22.002Z,1.50
2018-12-01T09:06:25.122Z,1.60
2018-12-01T09:11:28.260Z,1.60
2018-12-01T09:16:31.363Z,1.60
2018-12-01T09:21:34.517Z,1.60
2018-12-01T09:26:37.647Z,1.60
2018-12-01T09:31:40.770Z,1.60
2018-12-01T09:36:43.966Z,1.70
2018-12-01T09:41:47.090Z,1.70
2018-12-01T09:46:50.212Z,1.70
2018-12-01T09:51:53.326Z,1.70
2018-12-01T09:56:56.464Z,1.80
2018-12-01T10:01:59.612Z,1.70
2018-12-01T10:07:03.157Z,1.80
2018-12-01T10:12:06.017Z,1.80
2018-12-01T10:17:09.126Z,1.80
2018-12-01T10:22:12.241Z,1.80
2018-12-01T10:27:15.362Z,1.90
2018-12-01T10:32:18.509Z,1.90
2018-12-01T10:37:21.614Z,1.90
2018-12-01T10:42:24.727Z,1.90
2018-12-01T10:47:27.834Z,2.00
2018-12-01T10:52:30.947Z,2.00
2018-12-01T10:57:34.071Z,2.00
2018-12-01T11:02:42.599Z,2.00
2018-12-01T11:07:45.709Z,2.10
2018-12-01T11:12:48.827Z,2.10
2018-12-01T11:17:52.423Z,2.20
2018-12-01T11:22:57.993Z,2.20
2018-12-01T11:27:58.666Z,2.20
2018-12-01T11:33:01.783Z,2.20
2018-12-01T11:38:05.359Z,2.30
2018-12-01T11:43:09.122Z,2.30
2018-12-01T11:48:12.290Z,2.30
2018-12-01T11:53:15.399Z,2.30
2018-12-01T11:58:18.522Z,2.30
2018-12-01T12:03:21.646Z,2.40
2018-12-01T12:08:25.877Z,2.40
2018-12-01T12:13:29.002Z,2.40
2018-12-01T12:18:32.122Z,2.50
2018-12-01T12:23:35.250Z,2.50
2018-12-01T12:28:38.373Z,2.50
2018-12-01T12:33:41.499Z,2.50
2018-12-01T12:38:44.611Z,2.50
2018-12-01T12:43:47.730Z,2.60
2018-12-01T12:48:50.831Z,2.60
2018-12-01T12:53:53.959Z,2.60
2018-12-01T12:58:57.070Z,2.60
2018-12-01T13:04:00.186Z,2.60
2018-12-01T13:09:03.331Z,2.60
2018-12-01T13:14:06.435Z,2.70
2018-12-01T13:19:09.538Z,2.70
2018-12-01T13:24:12.663Z,2.70
2018-12-01T13:29:15.769Z,2.70
2018-12-01T13:34:18.915Z,2.70
2018-12-01T13:39:22.027Z,2.70
2018-12-01T13:44:25.138Z,2.70
2018-12-01T13:49:28.263Z,2.70
2018-12-01T13:54:31.527Z,2.70
2018-12-01T13:59:34.636Z,2.70
2018-12-01T14:04:37.750Z,2.70
2018-12-01T14:09:40.858Z,2.70
2018-12-01T14:14:43.986Z,2.70
2018-12-01T14:19:47.104Z,2.70
2018-12-01T14:24:50.220Z,2.70
2018-12-01T14:29:53.346Z,2.70
2018-12-01T14:34:56.459Z,2.70
2018-12-01T14:39:59.582Z,2.70
2018-12-01T14:45:02.688Z,2.70
2018-12-01T14:50:09.374Z,2.70
2018-12-01T14:55:17.079Z,2.70
2018-12-01T15:00:22.007Z,2.70
2018-12-01T15:05:25.874Z,2.70
2018-12-01T15:10:29.004Z,2.70
2018-12-01T15:15:32.106Z,2.70
2018-12-01T15:20:35.241Z,2.60
2018-12-01T15:25:38.362Z,2.70
2018-12-01T15:30:41.474Z,2.60
2018-12-01T15:35:45.463Z,2.60
2018-12-01T15:40:50.623Z,2.60
2018-12-01T15:45:53.739Z,2.60
2018-12-01T15:50:56.874Z,2.60
2018-12-01T15:56:00.006Z,2.60
2018-12-01T16:01:03.133Z,2.60
2018-12-01T16:06:06.331Z,2.60
2018-12-01T16:11:09.478Z,2.60
2018-12-01T16:16:12.591Z,2.60
2018-12-01T16:21:15.793Z,2.60
2018-12-01T16:26:18.923Z,2.60
2018-12-01T16:31:22.095Z,2.60
2018-12-01T16:36:25.278Z,2.60
2018-12-01T16:41:31.332Z,2.60
2018-12-01T16:46:34.449Z,2.60
2018-12-01T16:51:37.591Z,2.60
2018-12-01T16:56:40.728Z,2.50
2018-12-01T17:01:43.845Z,2.50
2018-12-01T17:06:46.966Z,2.50
2018-12-01T17:11:50.080Z,2.50
2018-12-01T17:16:53.179Z,2.50
2018-12-01T17:21:56.303Z,2.50
2018-12-01T17:26:59.485Z,2.50
2018-12-01T17:32:02.610Z,2.50
2018-12-01T17:37:06.214Z,2.50
2018-12-01T17:42:09.330Z,2.50
2018-12-01T17:47:12.462Z,2.50
2018-12-01T17:52:15.574Z,2.50
2018-12-01T17:57:18.687Z,2.50
2018-12-01T18:02:21.798Z,2.50
2018-12-01T18:07:25.598Z,2.50
2018-12-01T18:12:28.703Z,2.50
2018-12-01T18:17:31.808Z,2.50
2018-12-01T18:22:34.944Z,2.50
2018-12-01T18:27:38.075Z,2.50
2018-12-01T18:32:41.314Z,2.50
2018-12-01T18:37:44.428Z,2.50
2018-12-01T18:42:47.554Z,2.60
2018-12-01T18:47:50.697Z,2.60
2018-12-01T18:52:56.007Z,2.50
2018-12-01T18:57:59.154Z,2.60
2018-12-01T19:03:02.262Z,2.60
2018-12-01T19:08:05.386Z,2.60
2018-12-01T19:13:08.499Z,2.60
2018-12-01T19:18:11.664Z,2.60
2018-12-01T19:23:15.679Z,2.60
2018-12-01T19:28:18.813Z,2.60
2018-12-01T19:33:22.965Z,2.60
2018-12-01T19:38:27.174Z,2.60
2018-12-01T19:43:30.285Z,2.60
2018-12-01T19:48:33.408Z,2.60
2018-12-01T19:53:36.507Z,2.60
2018-12-01T19:58:39.620Z,2.60
2018-12-01T20:03:42.785Z,2.60
2018-12-01T20:08:45.973Z,2.60
2018-12-01T20:13:49.074Z,2.60
2018-12-01T20:18:52.983Z,2.60
2018-12-01T20:23:56.114Z,2.60
2018-12-01T20:28:59.240Z,2.60
2018-12-01T20:34:02.893Z,2.60
2018-12-01T20:39:26.919Z,2.70
2018-12-01T20:44:30.037Z,2.70
2018-12-01T20:49:33.138Z,2.70
2018-12-01T20:54:45.473Z,2.70
2018-12-01T20:59:48.627Z,2.70
2018-12-01T21:04:51.739Z,2.70
2018-12-01T21:09:54.858Z,2.70
2018-12-01T21:14:58.003Z,2.70
2018-12-01T21:20:01.110Z,2.70
2018-12-01T21:25:04.551Z,2.70
2018-12-01T21:30:15.329Z,2.70
2018-12-01T21:35:18.433Z,2.70
2018-12-01T21:40:21.551Z,2.70
2018-12-01T21:45:24.686Z,2.70
2018-12-01T21:50:27.811Z,2.70
2018-12-01T21:55:30.927Z,2.70
2018-12-01T22:00:34.047Z,2.70
2018-12-01T22:05:42.772Z,2.70
2018-12-01T22:10:47.895Z,2.70
2018-12-01T22:15:51.099Z,2.70
2018-12-01T22:20:54.211Z,2.70
2018-12-01T22:25:57.322Z,2.70
2018-12-01T22:31:00.447Z,2.70
2018-12-01T22:36:03.563Z,2.70
2018-12-01T22:41:06.830Z,2.70
2018-12-01T22:46:09.943Z,2.70
2018-12-01T22:51:13.059Z,2.70
2018-12-01T22:56:16.221Z,2.70
2018-12-01T23:01:19.307Z,2.70
2018-12-01T23:06:22.431Z,2.70
2018-12-01T23:11:25.539Z,2.70
2018-12-01T23:16:28.692Z,2.70
2018-12-01T23:21:31.834Z,2.70
2018-12-01T23:26:34.945Z,2.70
2018-12-01T23:31:38.058Z,2.70
2018-12-01T23:36:41.170Z,2.70
2018-12-01T23:41:44.474Z,2.70
2018-12-01T23:46:47.586Z,2.60
2018-12-01T23:51:50.779Z,2.70
2018-12-01T23:56:53.894Z,2.60
